sensor_id;sensor_type;location;lat;lon;timestamp;P1;durP1;ratioP1;P2;durP2;ratioP2
77105;SDS011;66057;54.718;18.426;2023-01-06T00:01:02;2.35;;;1.80;;
77105;SDS011;66057;54.718;18.426;2023-01-06T00:03:33;1.63;;;1.52;;
77105;SDS011;66057;54.718;18.426;2023-01-06T00:06:00;2.22;;;2.03;;
77105;SDS011;66057;54.718;18.426;2023-01-06T00:08:26;2.72;;;1.30;;
77105;SDS011;66057;54.718;18.426;2023-01-06T00:10:53;3.75;;;1.45;;
77105;SDS011;66057;54.718;18.426;2023-01-06T00:13:18;2.15;;;1.50;;
77105;SDS011;66057;54.718;18.426;2023-01-06T00:15:44;4.25;;;1.17;;
77105;SDS011;66057;54.718;18.426;2023-01-06T00:18:10;2.42;;;1.45;;
77105;SDS011;66057;54.718;18.426;2023-01-06T00:20:36;2.10;;;0.95;;
77105;SDS011;66057;54.718;18.426;2023-01-06T00:23:02;2.03;;;1.30;;
77105;SDS011;66057;54.718;18.426;2023-01-06T00:25:28;1.77;;;1.17;;
77105;SDS011;66057;54.718;18.426;2023-01-06T00:27:54;2.08;;;1.42;;
77105;SDS011;66057;54.718;18.426;2023-01-06T00:30:20;1.38;;;0.98;;
77105;SDS011;66057;54.718;18.426;2023-01-06T00:32:46;1.50;;;1.20;;
77105;SDS011;66057;54.718;18.426;2023-01-06T00:35:12;1.38;;;1.17;;
77105;SDS011;66057;54.718;18.426;2023-01-06T00:37:38;1.85;;;1.48;;
77105;SDS011;66057;54.718;18.426;2023-01-06T00:40:04;4.13;;;1.70;;
77105;SDS011;66057;54.718;18.426;2023-01-06T00:42:30;1.33;;;0.70;;
77105;SDS011;66057;54.718;18.426;2023-01-06T00:44:56;2.90;;;1.27;;
77105;SDS011;66057;54.718;18.426;2023-01-06T00:47:21;2.88;;;1.38;;
77105;SDS011;66057;54.718;18.426;2023-01-06T00:49:47;2.70;;;1.50;;
77105;SDS011;66057;54.718;18.426;2023-01-06T00:52:13;1.25;;;1.15;;
77105;SDS011;66057;54.718;18.426;2023-01-06T00:54:39;1.38;;;1.00;;
77105;SDS011;66057;54.718;18.426;2023-01-06T00:57:06;4.05;;;1.33;;
77105;SDS011;66057;54.718;18.426;2023-01-06T00:59:32;6.28;;;1.10;;
77105;SDS011;66057;54.718;18.426;2023-01-06T01:01:57;1.17;;;0.50;;
77105;SDS011;66057;54.718;18.426;2023-01-06T01:04:24;1.42;;;1.27;;
77105;SDS011;66057;54.718;18.426;2023-01-06T01:06:50;2.72;;;1.58;;
77105;SDS011;66057;54.718;18.426;2023-01-06T01:09:21;2.97;;;1.70;;
77105;SDS011;66057;54.718;18.426;2023-01-06T01:11:49;1.40;;;0.98;;
77105;SDS011;66057;54.718;18.426;2023-01-06T01:14:35;6.60;;;1.40;;
77105;SDS011;66057;54.718;18.426;2023-01-06T01:17:04;1.30;;;1.20;;
77105;SDS011;66057;54.718;18.426;2023-01-06T01:19:30;1.10;;;1.10;;
77105;SDS011;66057;54.718;18.426;2023-01-06T01:21:56;1.15;;;1.00;;
77105;SDS011;66057;54.718;18.426;2023-01-06T01:24:22;1.50;;;0.50;;
77105;SDS011;66057;54.718;18.426;2023-01-06T01:26:48;1.25;;;0.95;;
77105;SDS011;66057;54.718;18.426;2023-01-06T01:29:15;1.70;;;0.93;;
77105;SDS011;66057;54.718;18.426;2023-01-06T01:31:42;3.00;;;1.48;;
77105;SDS011;66057;54.718;18.426;2023-01-06T01:34:09;3.17;;;1.23;;
77105;SDS011;66057;54.718;18.426;2023-01-06T01:36:36;2.50;;;1.00;;
77105;SDS011;66057;54.718;18.426;2023-01-06T01:39:02;4.05;;;0.80;;
77105;SDS011;66057;54.718;18.426;2023-01-06T01:41:28;3.13;;;1.75;;
77105;SDS011;66057;54.718;18.426;2023-01-06T01:43:57;1.70;;;0.85;;
77105;SDS011;66057;54.718;18.426;2023-01-06T01:46:30;1.23;;;1.13;;
77105;SDS011;66057;54.718;18.426;2023-01-06T01:49:10;2.38;;;1.83;;
77105;SDS011;66057;54.718;18.426;2023-01-06T01:51:41;1.25;;;0.77;;
77105;SDS011;66057;54.718;18.426;2023-01-06T01:54:10;3.92;;;1.48;;
77105;SDS011;66057;54.718;18.426;2023-01-06T01:56:39;1.75;;;1.15;;
77105;SDS011;66057;54.718;18.426;2023-01-06T01:59:17;2.22;;;1.55;;
77105;SDS011;66057;54.718;18.426;2023-01-06T02:01:45;3.55;;;1.63;;
77105;SDS011;66057;54.718;18.426;2023-01-06T02:04:13;3.60;;;1.70;;
77105;SDS011;66057;54.718;18.426;2023-01-06T02:06:40;2.67;;;1.40;;
77105;SDS011;66057;54.718;18.426;2023-01-06T02:11:34;4.75;;;2.15;;
77105;SDS011;66057;54.718;18.426;2023-01-06T02:24:51;2.67;;;1.85;;
77105;SDS011;66057;54.718;18.426;2023-01-06T02:33:52;0.90;;;0.88;;
77105;SDS011;66057;54.718;18.426;2023-01-06T02:36:37;3.40;;;1.15;;
77105;SDS011;66057;54.718;18.426;2023-01-06T02:53:36;1.50;;;0.82;;
77105;SDS011;66057;54.718;18.426;2023-01-06T02:55:57;1.88;;;1.38;;
77105;SDS011;66057;54.718;18.426;2023-01-06T02:58:26;2.17;;;1.83;;
77105;SDS011;66057;54.718;18.426;2023-01-06T03:00:59;0.80;;;0.80;;
77105;SDS011;66057;54.718;18.426;2023-01-06T03:03:32;3.80;;;1.40;;
77105;SDS011;66057;54.718;18.426;2023-01-06T03:06:06;3.10;;;2.03;;
77105;SDS011;66057;54.718;18.426;2023-01-06T03:08:36;5.20;;;1.60;;
77105;SDS011;66057;54.718;18.426;2023-01-06T03:11:02;1.05;;;1.05;;
77105;SDS011;66057;54.718;18.426;2023-01-06T03:13:32;2.80;;;1.88;;
77105;SDS011;66057;54.718;18.426;2023-01-06T03:16:04;0.75;;;0.75;;
77105;SDS011;66057;54.718;18.426;2023-01-06T03:18:30;2.20;;;1.35;;
77105;SDS011;66057;54.718;18.426;2023-01-06T03:20:58;1.95;;;1.08;;
77105;SDS011;66057;54.718;18.426;2023-01-06T03:23:28;1.45;;;1.35;;
77105;SDS011;66057;54.718;18.426;2023-01-06T03:25:54;1.67;;;0.90;;
77105;SDS011;66057;54.718;18.426;2023-01-06T03:28:20;2.65;;;1.48;;
77105;SDS011;66057;54.718;18.426;2023-01-06T03:30:54;1.77;;;1.58;;
77105;SDS011;66057;54.718;18.426;2023-01-06T03:36:19;1.85;;;0.95;;
77105;SDS011;66057;54.718;18.426;2023-01-06T03:39:13;0.85;;;0.60;;
77105;SDS011;66057;54.718;18.426;2023-01-06T03:41:44;0.77;;;0.75;;
77105;SDS011;66057;54.718;18.426;2023-01-06T03:47:19;2.50;;;1.45;;
77105;SDS011;66057;54.718;18.426;2023-01-06T03:49:59;1.65;;;1.27;;
77105;SDS011;66057;54.718;18.426;2023-01-06T03:52:32;4.30;;;1.30;;
77105;SDS011;66057;54.718;18.426;2023-01-06T03:55:06;1.35;;;0.57;;
77105;SDS011;66057;54.718;18.426;2023-01-06T03:57:41;1.75;;;1.65;;
77105;SDS011;66057;54.718;18.426;2023-01-06T04:02:44;2.80;;;0.88;;
77105;SDS011;66057;54.718;18.426;2023-01-06T04:05:15;3.33;;;1.25;;
77105;SDS011;66057;54.718;18.426;2023-01-06T04:07:42;1.83;;;1.33;;
77105;SDS011;66057;54.718;18.426;2023-01-06T04:10:09;2.47;;;1.45;;
77105;SDS011;66057;54.718;18.426;2023-01-06T04:12:36;0.95;;;0.95;;
77105;SDS011;66057;54.718;18.426;2023-01-06T04:15:05;3.55;;;1.48;;
77105;SDS011;66057;54.718;18.426;2023-01-06T04:17:36;1.33;;;1.23;;
77105;SDS011;66057;54.718;18.426;2023-01-06T04:20:04;1.23;;;1.15;;
77105;SDS011;66057;54.718;18.426;2023-01-06T04:22:31;1.52;;;0.77;;
77105;SDS011;66057;54.718;18.426;2023-01-06T04:24:57;0.88;;;0.50;;
77105;SDS011;66057;54.718;18.426;2023-01-06T04:27:23;1.75;;;1.10;;
77105;SDS011;66057;54.718;18.426;2023-01-06T04:29:49;2.50;;;1.13;;
77105;SDS011;66057;54.718;18.426;2023-01-06T04:32:15;2.83;;;1.83;;
77105;SDS011;66057;54.718;18.426;2023-01-06T04:34:41;1.95;;;0.63;;
77105;SDS011;66057;54.718;18.426;2023-01-06T04:37:07;4.20;;;1.48;;
77105;SDS011;66057;54.718;18.426;2023-01-06T04:39:33;2.42;;;1.60;;
77105;SDS011;66057;54.718;18.426;2023-01-06T04:41:58;3.30;;;1.80;;
77105;SDS011;66057;54.718;18.426;2023-01-06T04:44:24;2.53;;;1.33;;
77105;SDS011;66057;54.718;18.426;2023-01-06T04:46:50;2.40;;;1.35;;
77105;SDS011;66057;54.718;18.426;2023-01-06T04:49:15;3.95;;;1.52;;
77105;SDS011;66057;54.718;18.426;2023-01-06T04:51:41;1.52;;;1.23;;
77105;SDS011;66057;54.718;18.426;2023-01-06T04:54:07;1.17;;;1.08;;
77105;SDS011;66057;54.718;18.426;2023-01-06T04:56:33;3.88;;;1.45;;
77105;SDS011;66057;54.718;18.426;2023-01-06T04:58:58;1.52;;;1.42;;
77105;SDS011;66057;54.718;18.426;2023-01-06T05:01:24;1.08;;;1.00;;
77105;SDS011;66057;54.718;18.426;2023-01-06T05:03:51;2.28;;;1.25;;
77105;SDS011;66057;54.718;18.426;2023-01-06T05:06:17;1.77;;;1.25;;
77105;SDS011;66057;54.718;18.426;2023-01-06T05:08:44;1.02;;;0.60;;
77105;SDS011;66057;54.718;18.426;2023-01-06T05:11:11;0.88;;;0.88;;
77105;SDS011;66057;54.718;18.426;2023-01-06T05:13:37;2.40;;;1.40;;
77105;SDS011;66057;54.718;18.426;2023-01-06T05:16:10;2.58;;;1.58;;
77105;SDS011;66057;54.718;18.426;2023-01-06T05:18:45;1.98;;;1.48;;
77105;SDS011;66057;54.718;18.426;2023-01-06T05:21:11;2.90;;;1.75;;
77105;SDS011;66057;54.718;18.426;2023-01-06T05:23:37;1.95;;;1.50;;
77105;SDS011;66057;54.718;18.426;2023-01-06T05:26:03;2.33;;;1.65;;
77105;SDS011;66057;54.718;18.426;2023-01-06T05:28:30;2.50;;;2.30;;
77105;SDS011;66057;54.718;18.426;2023-01-06T05:31:00;2.25;;;1.27;;
77105;SDS011;66057;54.718;18.426;2023-01-06T05:33:26;1.85;;;1.75;;
77105;SDS011;66057;54.718;18.426;2023-01-06T05:35:56;1.13;;;1.08;;
77105;SDS011;66057;54.718;18.426;2023-01-06T05:38:23;1.65;;;1.10;;
77105;SDS011;66057;54.718;18.426;2023-01-06T05:40:52;2.45;;;1.60;;
77105;SDS011;66057;54.718;18.426;2023-01-06T05:43:19;2.38;;;1.60;;
77105;SDS011;66057;54.718;18.426;2023-01-06T05:45:45;1.20;;;0.90;;
77105;SDS011;66057;54.718;18.426;2023-01-06T05:48:11;1.98;;;1.42;;
77105;SDS011;66057;54.718;18.426;2023-01-06T05:50:36;2.97;;;1.08;;
77105;SDS011;66057;54.718;18.426;2023-01-06T05:53:02;2.92;;;0.40;;
77105;SDS011;66057;54.718;18.426;2023-01-06T05:55:28;3.97;;;1.27;;
77105;SDS011;66057;54.718;18.426;2023-01-06T05:57:54;2.20;;;1.15;;
77105;SDS011;66057;54.718;18.426;2023-01-06T06:00:19;2.45;;;1.55;;
77105;SDS011;66057;54.718;18.426;2023-01-06T06:02:45;2.38;;;1.45;;
77105;SDS011;66057;54.718;18.426;2023-01-06T06:05:11;2.60;;;1.80;;
77105;SDS011;66057;54.718;18.426;2023-01-06T06:07:37;0.77;;;0.77;;
77105;SDS011;66057;54.718;18.426;2023-01-06T06:10:03;2.08;;;1.42;;
77105;SDS011;66057;54.718;18.426;2023-01-06T06:12:29;0.88;;;0.88;;
77105;SDS011;66057;54.718;18.426;2023-01-06T06:14:55;0.80;;;0.80;;
77105;SDS011;66057;54.718;18.426;2023-01-06T06:17:21;2.25;;;1.20;;
77105;SDS011;66057;54.718;18.426;2023-01-06T06:19:47;1.42;;;1.02;;
77105;SDS011;66057;54.718;18.426;2023-01-06T06:22:12;4.70;;;1.48;;
77105;SDS011;66057;54.718;18.426;2023-01-06T06:24:38;5.57;;;1.35;;
77105;SDS011;66057;54.718;18.426;2023-01-06T06:27:04;1.80;;;1.23;;
77105;SDS011;66057;54.718;18.426;2023-01-06T06:29:30;2.42;;;1.50;;
77105;SDS011;66057;54.718;18.426;2023-01-06T06:31:56;1.23;;;1.20;;
77105;SDS011;66057;54.718;18.426;2023-01-06T06:34:21;2.15;;;1.48;;
77105;SDS011;66057;54.718;18.426;2023-01-06T06:36:47;1.67;;;1.15;;
77105;SDS011;66057;54.718;18.426;2023-01-06T06:39:14;0.80;;;0.80;;
77105;SDS011;66057;54.718;18.426;2023-01-06T06:41:39;4.85;;;1.55;;
77105;SDS011;66057;54.718;18.426;2023-01-06T06:44:05;1.42;;;1.23;;
77105;SDS011;66057;54.718;18.426;2023-01-06T06:46:31;1.95;;;1.60;;
77105;SDS011;66057;54.718;18.426;2023-01-06T06:48:56;1.20;;;1.17;;
77105;SDS011;66057;54.718;18.426;2023-01-06T06:51:22;2.10;;;1.30;;
77105;SDS011;66057;54.718;18.426;2023-01-06T06:53:49;1.25;;;1.15;;
77105;SDS011;66057;54.718;18.426;2023-01-06T06:56:15;1.33;;;0.85;;
77105;SDS011;66057;54.718;18.426;2023-01-06T07:01:09;1.48;;;0.90;;
77105;SDS011;66057;54.718;18.426;2023-01-06T07:03:36;1.92;;;1.75;;
77105;SDS011;66057;54.718;18.426;2023-01-06T07:06:03;3.17;;;0.75;;
77105;SDS011;66057;54.718;18.426;2023-01-06T07:08:30;3.08;;;1.50;;
77105;SDS011;66057;54.718;18.426;2023-01-06T07:13:23;1.70;;;1.02;;
77105;SDS011;66057;54.718;18.426;2023-01-06T07:15:49;2.42;;;2.22;;
77105;SDS011;66057;54.718;18.426;2023-01-06T07:18:14;2.90;;;1.50;;
77105;SDS011;66057;54.718;18.426;2023-01-06T07:20:44;2.75;;;2.20;;
77105;SDS011;66057;54.718;18.426;2023-01-06T07:23:11;1.52;;;1.23;;
77105;SDS011;66057;54.718;18.426;2023-01-06T07:25:37;3.05;;;1.90;;
77105;SDS011;66057;54.718;18.426;2023-01-06T07:28:03;3.35;;;1.42;;
77105;SDS011;66057;54.718;18.426;2023-01-06T07:30:31;1.95;;;1.20;;
77105;SDS011;66057;54.718;18.426;2023-01-06T07:32:58;1.63;;;1.30;;
77105;SDS011;66057;54.718;18.426;2023-01-06T07:35:24;2.20;;;1.33;;
77105;SDS011;66057;54.718;18.426;2023-01-06T07:37:50;2.35;;;1.80;;
77105;SDS011;66057;54.718;18.426;2023-01-06T07:40:16;0.93;;;0.93;;
77105;SDS011;66057;54.718;18.426;2023-01-06T07:42:42;2.00;;;1.17;;
77105;SDS011;66057;54.718;18.426;2023-01-06T07:45:09;3.45;;;1.80;;
77105;SDS011;66057;54.718;18.426;2023-01-06T07:47:35;2.45;;;1.70;;
77105;SDS011;66057;54.718;18.426;2023-01-06T07:50:02;3.28;;;1.17;;
77105;SDS011;66057;54.718;18.426;2023-01-06T07:52:28;1.67;;;1.58;;
77105;SDS011;66057;54.718;18.426;2023-01-06T07:54:54;6.25;;;0.60;;
77105;SDS011;66057;54.718;18.426;2023-01-06T07:57:28;1.60;;;1.50;;
77105;SDS011;66057;54.718;18.426;2023-01-06T07:59:54;2.42;;;1.50;;
77105;SDS011;66057;54.718;18.426;2023-01-06T08:02:20;2.13;;;1.92;;
77105;SDS011;66057;54.718;18.426;2023-01-06T08:04:47;2.42;;;1.58;;
77105;SDS011;66057;54.718;18.426;2023-01-06T08:07:13;3.25;;;1.73;;
77105;SDS011;66057;54.718;18.426;2023-01-06T08:09:40;1.35;;;1.25;;
77105;SDS011;66057;54.718;18.426;2023-01-06T08:12:05;1.40;;;0.88;;
77105;SDS011;66057;54.718;18.426;2023-01-06T08:14:31;3.38;;;1.55;;
77105;SDS011;66057;54.718;18.426;2023-01-06T08:16:57;3.28;;;1.92;;
77105;SDS011;66057;54.718;18.426;2023-01-06T08:19:23;2.08;;;1.73;;
77105;SDS011;66057;54.718;18.426;2023-01-06T08:21:48;1.58;;;1.27;;
77105;SDS011;66057;54.718;18.426;2023-01-06T08:24:14;2.28;;;1.30;;
77105;SDS011;66057;54.718;18.426;2023-01-06T08:26:40;2.05;;;1.35;;
77105;SDS011;66057;54.718;18.426;2023-01-06T08:29:06;2.00;;;1.63;;
77105;SDS011;66057;54.718;18.426;2023-01-06T08:31:32;1.77;;;1.40;;
77105;SDS011;66057;54.718;18.426;2023-01-06T08:33:59;2.10;;;1.55;;
77105;SDS011;66057;54.718;18.426;2023-01-06T08:36:25;1.48;;;0.90;;
77105;SDS011;66057;54.718;18.426;2023-01-06T08:38:51;3.55;;;2.22;;
77105;SDS011;66057;54.718;18.426;2023-01-06T08:41:18;2.38;;;1.67;;
77105;SDS011;66057;54.718;18.426;2023-01-06T08:43:44;1.17;;;0.73;;
77105;SDS011;66057;54.718;18.426;2023-01-06T08:46:12;4.15;;;2.10;;
77105;SDS011;66057;54.718;18.426;2023-01-06T08:48:39;1.70;;;1.55;;
77105;SDS011;66057;54.718;18.426;2023-01-06T08:51:06;1.15;;;0.82;;
77105;SDS011;66057;54.718;18.426;2023-01-06T08:53:35;2.05;;;1.20;;
77105;SDS011;66057;54.718;18.426;2023-01-06T08:56:01;3.65;;;1.58;;
77105;SDS011;66057;54.718;18.426;2023-01-06T08:58:28;3.03;;;1.73;;
77105;SDS011;66057;54.718;18.426;2023-01-06T09:00:53;3.10;;;1.67;;
77105;SDS011;66057;54.718;18.426;2023-01-06T09:03:19;2.60;;;1.80;;
77105;SDS011;66057;54.718;18.426;2023-01-06T09:05:52;2.60;;;1.85;;
77105;SDS011;66057;54.718;18.426;2023-01-06T09:08:22;1.70;;;0.63;;
77105;SDS011;66057;54.718;18.426;2023-01-06T09:10:48;3.35;;;2.17;;
77105;SDS011;66057;54.718;18.426;2023-01-06T09:13:15;1.88;;;1.35;;
77105;SDS011;66057;54.718;18.426;2023-01-06T09:15:41;2.75;;;1.33;;
77105;SDS011;66057;54.718;18.426;2023-01-06T09:18:08;1.92;;;1.33;;
77105;SDS011;66057;54.718;18.426;2023-01-06T09:20:35;1.67;;;1.58;;
77105;SDS011;66057;54.718;18.426;2023-01-06T09:25:28;1.73;;;1.58;;
77105;SDS011;66057;54.718;18.426;2023-01-06T09:27:53;2.17;;;1.67;;
77105;SDS011;66057;54.718;18.426;2023-01-06T09:30:19;3.88;;;2.40;;
77105;SDS011;66057;54.718;18.426;2023-01-06T09:32:45;1.52;;;1.42;;
77105;SDS011;66057;54.718;18.426;2023-01-06T09:35:10;2.75;;;1.98;;
77105;SDS011;66057;54.718;18.426;2023-01-06T09:37:36;2.38;;;1.40;;
77105;SDS011;66057;54.718;18.426;2023-01-06T09:40:02;4.45;;;1.73;;
77105;SDS011;66057;54.718;18.426;2023-01-06T09:45:15;1.65;;;1.30;;
77105;SDS011;66057;54.718;18.426;2023-01-06T09:47:50;2.05;;;1.48;;
77105;SDS011;66057;54.718;18.426;2023-01-06T09:52:57;4.90;;;2.92;;
77105;SDS011;66057;54.718;18.426;2023-01-06T09:55:31;2.63;;;1.10;;
77105;SDS011;66057;54.718;18.426;2023-01-06T09:58:05;2.35;;;2.05;;
77105;SDS011;66057;54.718;18.426;2023-01-06T10:00:38;5.53;;;2.35;;
77105;SDS011;66057;54.718;18.426;2023-01-06T10:03:15;2.08;;;1.90;;
77105;SDS011;66057;54.718;18.426;2023-01-06T10:09:07;7.38;;;2.72;;
77105;SDS011;66057;54.718;18.426;2023-01-06T10:12:06;2.58;;;2.10;;
77105;SDS011;66057;54.718;18.426;2023-01-06T10:20:57;2.30;;;1.83;;
77105;SDS011;66057;54.718;18.426;2023-01-06T10:23:27;1.83;;;1.55;;
77105;SDS011;66057;54.718;18.426;2023-01-06T10:29:12;3.03;;;1.45;;
77105;SDS011;66057;54.718;18.426;2023-01-06T10:31:42;5.68;;;2.50;;
77105;SDS011;66057;54.718;18.426;2023-01-06T10:34:13;3.58;;;1.80;;
77105;SDS011;66057;54.718;18.426;2023-01-06T10:36:43;3.85;;;2.28;;
77105;SDS011;66057;54.718;18.426;2023-01-06T10:39:20;4.07;;;2.85;;
77105;SDS011;66057;54.718;18.426;2023-01-06T10:44:45;3.53;;;1.75;;
77105;SDS011;66057;54.718;18.426;2023-01-06T10:47:19;6.55;;;2.85;;
77105;SDS011;66057;54.718;18.426;2023-01-06T10:49:54;4.55;;;2.72;;
77105;SDS011;66057;54.718;18.426;2023-01-06T10:52:20;2.03;;;1.52;;
77105;SDS011;66057;54.718;18.426;2023-01-06T10:54:47;2.60;;;2.22;;
77105;SDS011;66057;54.718;18.426;2023-01-06T10:57:23;5.15;;;2.35;;
77105;SDS011;66057;54.718;18.426;2023-01-06T11:02:44;3.30;;;2.42;;
77105;SDS011;66057;54.718;18.426;2023-01-06T11:05:19;5.70;;;2.45;;
77105;SDS011;66057;54.718;18.426;2023-01-06T11:07:54;5.45;;;1.70;;
77105;SDS011;66057;54.718;18.426;2023-01-06T11:10:24;1.77;;;1.08;;
77105;SDS011;66057;54.718;18.426;2023-01-06T11:12:54;3.45;;;1.60;;
77105;SDS011;66057;54.718;18.426;2023-01-06T11:15:30;4.50;;;2.25;;
77105;SDS011;66057;54.718;18.426;2023-01-06T11:18:01;4.97;;;3.75;;
77105;SDS011;66057;54.718;18.426;2023-01-06T11:20:29;3.85;;;3.40;;
77105;SDS011;66057;54.718;18.426;2023-01-06T11:23:19;4.72;;;3.85;;
77105;SDS011;66057;54.718;18.426;2023-01-06T11:25:58;6.97;;;3.78;;
77105;SDS011;66057;54.718;18.426;2023-01-06T11:28:46;3.72;;;2.90;;
77105;SDS011;66057;54.718;18.426;2023-01-06T11:36:27;5.05;;;3.60;;
77105;SDS011;66057;54.718;18.426;2023-01-06T11:39:28;5.57;;;2.20;;
77105;SDS011;66057;54.718;18.426;2023-01-06T11:46:56;5.68;;;3.83;;
77105;SDS011;66057;54.718;18.426;2023-01-06T11:49:49;7.65;;;4.78;;
77105;SDS011;66057;54.718;18.426;2023-01-06T11:52:24;5.90;;;2.55;;
77105;SDS011;66057;54.718;18.426;2023-01-06T12:03:16;4.68;;;2.90;;
77105;SDS011;66057;54.718;18.426;2023-01-06T12:14:08;3.17;;;1.83;;
77105;SDS011;66057;54.718;18.426;2023-01-06T12:17:00;3.20;;;2.80;;
77105;SDS011;66057;54.718;18.426;2023-01-06T12:19:38;4.63;;;3.42;;
77105;SDS011;66057;54.718;18.426;2023-01-06T12:22:39;5.10;;;3.17;;
77105;SDS011;66057;54.718;18.426;2023-01-06T12:25:12;4.75;;;2.75;;
77105;SDS011;66057;54.718;18.426;2023-01-06T12:27:45;4.93;;;3.42;;
77105;SDS011;66057;54.718;18.426;2023-01-06T12:30:16;4.85;;;3.47;;
77105;SDS011;66057;54.718;18.426;2023-01-06T12:33:10;4.55;;;2.50;;
77105;SDS011;66057;54.718;18.426;2023-01-06T12:35:41;5.55;;;2.90;;
77105;SDS011;66057;54.718;18.426;2023-01-06T12:38:15;3.97;;;2.70;;
77105;SDS011;66057;54.718;18.426;2023-01-06T12:40:54;6.03;;;3.05;;
77105;SDS011;66057;54.718;18.426;2023-01-06T12:43:28;3.50;;;2.75;;
77105;SDS011;66057;54.718;18.426;2023-01-06T12:45:59;1.70;;;1.50;;
77105;SDS011;66057;54.718;18.426;2023-01-06T12:48:39;2.95;;;2.08;;
77105;SDS011;66057;54.718;18.426;2023-01-06T12:51:13;6.60;;;3.03;;
77105;SDS011;66057;54.718;18.426;2023-01-06T12:54:02;3.33;;;2.25;;
77105;SDS011;66057;54.718;18.426;2023-01-06T13:13:15;3.88;;;3.17;;
77105;SDS011;66057;54.718;18.426;2023-01-06T13:15:50;5.25;;;3.20;;
77105;SDS011;66057;54.718;18.426;2023-01-06T13:21:02;5.05;;;3.92;;
77105;SDS011;66057;54.718;18.426;2023-01-06T13:23:36;4.32;;;2.80;;
77105;SDS011;66057;54.718;18.426;2023-01-06T13:26:14;6.80;;;3.00;;
77105;SDS011;66057;54.718;18.426;2023-01-06T13:37:16;6.80;;;4.22;;
77105;SDS011;66057;54.718;18.426;2023-01-06T13:39:53;7.40;;;2.22;;
77105;SDS011;66057;54.718;18.426;2023-01-06T13:42:31;4.28;;;2.80;;
77105;SDS011;66057;54.718;18.426;2023-01-06T13:47:23;4.60;;;3.83;;
77105;SDS011;66057;54.718;18.426;2023-01-06T13:49:49;4.78;;;4.38;;
77105;SDS011;66057;54.718;18.426;2023-01-06T13:52:21;4.55;;;2.58;;
77105;SDS011;66057;54.718;18.426;2023-01-06T14:05:03;10.50;;;5.35;;
77105;SDS011;66057;54.718;18.426;2023-01-06T14:07:30;6.45;;;4.13;;
77105;SDS011;66057;54.718;18.426;2023-01-06T14:10:05;7.53;;;4.97;;
77105;SDS011;66057;54.718;18.426;2023-01-06T14:12:52;8.23;;;6.78;;
77105;SDS011;66057;54.718;18.426;2023-01-06T14:15:39;12.82;;;6.40;;
77105;SDS011;66057;54.718;18.426;2023-01-06T14:21:03;7.38;;;4.35;;
77105;SDS011;66057;54.718;18.426;2023-01-06T14:32:06;14.50;;;7.63;;
77105;SDS011;66057;54.718;18.426;2023-01-06T14:34:36;14.45;;;8.55;;
77105;SDS011;66057;54.718;18.426;2023-01-06T14:37:13;14.65;;;7.93;;
77105;SDS011;66057;54.718;18.426;2023-01-06T14:39:41;12.63;;;6.15;;
77105;SDS011;66057;54.718;18.426;2023-01-06T14:42:19;11.02;;;6.65;;
77105;SDS011;66057;54.718;18.426;2023-01-06T14:47:21;12.52;;;7.50;;
77105;SDS011;66057;54.718;18.426;2023-01-06T14:49:56;6.82;;;3.78;;
77105;SDS011;66057;54.718;18.426;2023-01-06T14:52:32;10.57;;;6.10;;
77105;SDS011;66057;54.718;18.426;2023-01-06T14:55:01;5.65;;;3.50;;
77105;SDS011;66057;54.718;18.426;2023-01-06T14:57:33;10.75;;;5.93;;
77105;SDS011;66057;54.718;18.426;2023-01-06T15:02:29;9.07;;;6.70;;
77105;SDS011;66057;54.718;18.426;2023-01-06T15:04:56;8.48;;;4.28;;
77105;SDS011;66057;54.718;18.426;2023-01-06T15:07:23;15.05;;;9.65;;
77105;SDS011;66057;54.718;18.426;2023-01-06T15:09:49;7.65;;;5.22;;
77105;SDS011;66057;54.718;18.426;2023-01-06T15:12:29;12.45;;;8.15;;
77105;SDS011;66057;54.718;18.426;2023-01-06T15:15:12;16.10;;;7.93;;
77105;SDS011;66057;54.718;18.426;2023-01-06T15:17:38;12.85;;;8.43;;
77105;SDS011;66057;54.718;18.426;2023-01-06T15:20:09;13.50;;;8.85;;
77105;SDS011;66057;54.718;18.426;2023-01-06T15:22:37;8.35;;;5.85;;
77105;SDS011;66057;54.718;18.426;2023-01-06T15:25:04;12.45;;;9.15;;
77105;SDS011;66057;54.718;18.426;2023-01-06T15:27:31;12.02;;;8.60;;
77105;SDS011;66057;54.718;18.426;2023-01-06T15:29:57;12.57;;;6.88;;
77105;SDS011;66057;54.718;18.426;2023-01-06T15:32:24;16.88;;;9.23;;
77105;SDS011;66057;54.718;18.426;2023-01-06T15:34:50;12.68;;;7.47;;
77105;SDS011;66057;54.718;18.426;2023-01-06T15:37:24;12.05;;;8.32;;
77105;SDS011;66057;54.718;18.426;2023-01-06T15:39:52;13.40;;;8.15;;
77105;SDS011;66057;54.718;18.426;2023-01-06T15:42:20;18.70;;;9.02;;
77105;SDS011;66057;54.718;18.426;2023-01-06T15:49:54;20.92;;;7.90;;
77105;SDS011;66057;54.718;18.426;2023-01-06T15:52:33;12.48;;;7.78;;
77105;SDS011;66057;54.718;18.426;2023-01-06T15:55:04;11.18;;;7.03;;
77105;SDS011;66057;54.718;18.426;2023-01-06T15:57:33;10.98;;;7.53;;
77105;SDS011;66057;54.718;18.426;2023-01-06T16:00:07;12.65;;;6.70;;
77105;SDS011;66057;54.718;18.426;2023-01-06T16:02:45;15.85;;;9.80;;
77105;SDS011;66057;54.718;18.426;2023-01-06T16:08:13;11.02;;;7.63;;
77105;SDS011;66057;54.718;18.426;2023-01-06T16:10:43;10.85;;;7.30;;
77105;SDS011;66057;54.718;18.426;2023-01-06T16:13:23;13.32;;;7.03;;
77105;SDS011;66057;54.718;18.426;2023-01-06T16:16:26;18.65;;;10.63;;
77105;SDS011;66057;54.718;18.426;2023-01-06T16:18:43;11.05;;;7.78;;
77105;SDS011;66057;54.718;18.426;2023-01-06T16:21:13;13.13;;;8.60;;
77105;SDS011;66057;54.718;18.426;2023-01-06T16:23:46;11.52;;;5.85;;
77105;SDS011;66057;54.718;18.426;2023-01-06T16:26:15;16.50;;;9.23;;
77105;SDS011;66057;54.718;18.426;2023-01-06T16:28:44;12.93;;;7.40;;
77105;SDS011;66057;54.718;18.426;2023-01-06T16:31:14;17.05;;;9.07;;
77105;SDS011;66057;54.718;18.426;2023-01-06T16:34:12;16.08;;;9.38;;
77105;SDS011;66057;54.718;18.426;2023-01-06T16:36:39;15.05;;;9.00;;
77105;SDS011;66057;54.718;18.426;2023-01-06T16:39:05;17.63;;;11.13;;
77105;SDS011;66057;54.718;18.426;2023-01-06T16:41:31;16.27;;;8.02;;
77105;SDS011;66057;54.718;18.426;2023-01-06T16:43:56;14.82;;;8.98;;
77105;SDS011;66057;54.718;18.426;2023-01-06T16:46:22;16.20;;;9.77;;
77105;SDS011;66057;54.718;18.426;2023-01-06T16:48:53;15.40;;;9.02;;
77105;SDS011;66057;54.718;18.426;2023-01-06T16:51:20;19.30;;;10.15;;
77105;SDS011;66057;54.718;18.426;2023-01-06T16:53:47;16.10;;;9.38;;
77105;SDS011;66057;54.718;18.426;2023-01-06T16:56:17;12.23;;;8.00;;
77105;SDS011;66057;54.718;18.426;2023-01-06T17:01:14;13.30;;;8.68;;
77105;SDS011;66057;54.718;18.426;2023-01-06T17:03:42;25.30;;;12.88;;
77105;SDS011;66057;54.718;18.426;2023-01-06T17:08:45;17.15;;;10.23;;
77105;SDS011;66057;54.718;18.426;2023-01-06T17:11:18;21.67;;;13.00;;
77105;SDS011;66057;54.718;18.426;2023-01-06T17:13:59;17.33;;;9.90;;
77105;SDS011;66057;54.718;18.426;2023-01-06T17:16:32;21.77;;;15.25;;
77105;SDS011;66057;54.718;18.426;2023-01-06T17:19:00;18.00;;;12.80;;
77105;SDS011;66057;54.718;18.426;2023-01-06T17:21:35;24.95;;;14.50;;
77105;SDS011;66057;54.718;18.426;2023-01-06T17:24:11;24.67;;;14.57;;
77105;SDS011;66057;54.718;18.426;2023-01-06T17:26:41;26.67;;;15.68;;
77105;SDS011;66057;54.718;18.426;2023-01-06T17:29:14;19.88;;;12.80;;
77105;SDS011;66057;54.718;18.426;2023-01-06T17:31:44;30.05;;;16.52;;
77105;SDS011;66057;54.718;18.426;2023-01-06T17:34:18;20.15;;;13.63;;
77105;SDS011;66057;54.718;18.426;2023-01-06T17:36:46;24.52;;;14.73;;